sensor_id;sensor_type;location;lat;lon;timestamp;P1;durP1;ratioP1;P2;durP2;ratioP2
68310;SDS011;55157;51.036;17.058;2022-08-04T00:02:01;7.10;;;4.90;;
68310;SDS011;55157;51.036;17.058;2022-08-04T00:04:28;14.15;;;5.25;;
68310;SDS011;55157;51.036;17.058;2022-08-04T00:06:58;7.53;;;5.70;;
68310;SDS011;55157;51.036;17.058;2022-08-04T00:09:29;11.65;;;5.13;;
68310;SDS011;55157;51.036;17.058;2022-08-04T00:11:54;10.60;;;5.78;;
68310;SDS011;55157;51.036;17.058;2022-08-04T00:14:20;15.18;;;5.80;;
68310;SDS011;55157;51.036;17.058;2022-08-04T00:16:48;6.68;;;5.30;;
68310;SDS011;55157;51.036;17.058;2022-08-04T00:19:15;13.40;;;5.22;;
68310;SDS011;55157;51.036;17.058;2022-08-04T00:21:41;7.60;;;5.45;;
68310;SDS011;55157;51.036;17.058;2022-08-04T00:24:10;8.68;;;5.97;;
68310;SDS011;55157;51.036;17.058;2022-08-04T00:26:36;7.78;;;5.95;;
68310;SDS011;55157;51.036;17.058;2022-08-04T00:29:02;7.53;;;5.28;;
68310;SDS011;55157;51.036;17.058;2022-08-04T00:31:27;13.25;;;6.25;;
68310;SDS011;55157;51.036;17.058;2022-08-04T00:33:54;14.65;;;6.25;;
68310;SDS011;55157;51.036;17.058;2022-08-04T00:36:19;12.35;;;5.93;;
68310;SDS011;55157;51.036;17.058;2022-08-04T00:38:45;13.65;;;6.32;;
68310;SDS011;55157;51.036;17.058;2022-08-04T00:41:14;11.98;;;5.93;;
68310;SDS011;55157;51.036;17.058;2022-08-04T00:43:43;9.05;;;5.97;;
68310;SDS011;55157;51.036;17.058;2022-08-04T00:46:20;12.00;;;6.20;;
68310;SDS011;55157;51.036;17.058;2022-08-04T00:51:46;10.88;;;6.55;;
68310;SDS011;55157;51.036;17.058;2022-08-04T00:54:13;32.20;;;7.65;;
68310;SDS011;55157;51.036;17.058;2022-08-04T00:59:43;27.40;;;7.78;;
68310;SDS011;55157;51.036;17.058;2022-08-04T01:02:10;13.88;;;6.00;;
68310;SDS011;55157;51.036;17.058;2022-08-04T01:04:43;9.80;;;6.53;;
68310;SDS011;55157;51.036;17.058;2022-08-04T01:07:14;16.88;;;6.32;;
68310;SDS011;55157;51.036;17.058;2022-08-04T01:09:48;11.13;;;6.68;;
68310;SDS011;55157;51.036;17.058;2022-08-04T01:12:29;9.25;;;6.53;;
68310;SDS011;55157;51.036;17.058;2022-08-04T01:15:00;12.98;;;6.90;;
68310;SDS011;55157;51.036;17.058;2022-08-04T01:17:27;16.45;;;7.30;;
68310;SDS011;55157;51.036;17.058;2022-08-04T01:20:00;11.23;;;7.00;;
68310;SDS011;55157;51.036;17.058;2022-08-04T01:25:21;13.68;;;6.78;;
68310;SDS011;55157;51.036;17.058;2022-08-04T01:28:00;18.95;;;7.00;;
68310;SDS011;55157;51.036;17.058;2022-08-04T01:30:42;19.58;;;7.72;;
68310;SDS011;55157;51.036;17.058;2022-08-04T01:33:11;11.32;;;6.70;;
68310;SDS011;55157;51.036;17.058;2022-08-04T01:35:38;12.68;;;7.00;;
68310;SDS011;55157;51.036;17.058;2022-08-04T01:38:06;13.95;;;6.80;;
68310;SDS011;55157;51.036;17.058;2022-08-04T01:40:34;9.55;;;6.97;;
68310;SDS011;55157;51.036;17.058;2022-08-04T01:43:01;18.33;;;6.57;;
68310;SDS011;55157;51.036;17.058;2022-08-04T01:45:27;12.60;;;7.50;;
68310;SDS011;55157;51.036;17.058;2022-08-04T01:47:55;19.60;;;6.85;;
68310;SDS011;55157;51.036;17.058;2022-08-04T01:50:21;19.30;;;7.13;;
68310;SDS011;55157;51.036;17.058;2022-08-04T01:52:47;18.02;;;7.32;;
68310;SDS011;55157;51.036;17.058;2022-08-04T01:55:13;11.27;;;6.97;;
68310;SDS011;55157;51.036;17.058;2022-08-04T01:57:40;11.07;;;7.05;;
68310;SDS011;55157;51.036;17.058;2022-08-04T02:00:06;10.25;;;7.05;;
68310;SDS011;55157;51.036;17.058;2022-08-04T02:02:31;15.30;;;7.07;;
68310;SDS011;55157;51.036;17.058;2022-08-04T02:04:58;13.05;;;7.47;;
68310;SDS011;55157;51.036;17.058;2022-08-04T02:07:29;16.73;;;7.05;;
68310;SDS011;55157;51.036;17.058;2022-08-04T02:10:02;11.68;;;7.28;;
68310;SDS011;55157;51.036;17.058;2022-08-04T02:12:30;17.02;;;7.10;;
68310;SDS011;55157;51.036;17.058;2022-08-04T02:14:58;13.73;;;7.75;;
68310;SDS011;55157;51.036;17.058;2022-08-04T02:17:25;9.85;;;7.05;;
68310;SDS011;55157;51.036;17.058;2022-08-04T02:20:00;10.52;;;7.78;;
68310;SDS011;55157;51.036;17.058;2022-08-04T02:22:27;10.38;;;7.35;;
68310;SDS011;55157;51.036;17.058;2022-08-04T02:24:54;13.32;;;7.90;;
68310;SDS011;55157;51.036;17.058;2022-08-04T02:27:22;18.70;;;8.18;;
68310;SDS011;55157;51.036;17.058;2022-08-04T02:29:50;16.13;;;8.70;;
68310;SDS011;55157;51.036;17.058;2022-08-04T02:32:18;14.45;;;7.82;;
68310;SDS011;55157;51.036;17.058;2022-08-04T02:34:45;15.23;;;7.97;;
68310;SDS011;55157;51.036;17.058;2022-08-04T02:37:14;24.15;;;8.55;;
68310;SDS011;55157;51.036;17.058;2022-08-04T02:39:40;15.25;;;8.55;;
68310;SDS011;55157;51.036;17.058;2022-08-04T02:42:07;14.95;;;8.40;;
68310;SDS011;55157;51.036;17.058;2022-08-04T02:44:32;14.27;;;7.28;;
68310;SDS011;55157;51.036;17.058;2022-08-04T02:46:58;15.75;;;8.13;;
68310;SDS011;55157;51.036;17.058;2022-08-04T02:49:24;10.27;;;7.45;;
68310;SDS011;55157;51.036;17.058;2022-08-04T02:51:50;15.50;;;7.63;;
68310;SDS011;55157;51.036;17.058;2022-08-04T02:54:26;11.45;;;7.95;;
68310;SDS011;55157;51.036;17.058;2022-08-04T02:56:52;13.05;;;8.40;;
68310;SDS011;55157;51.036;17.058;2022-08-04T02:59:25;14.98;;;7.70;;
68310;SDS011;55157;51.036;17.058;2022-08-04T03:01:53;13.13;;;8.07;;
68310;SDS011;55157;51.036;17.058;2022-08-04T03:04:21;12.80;;;8.40;;
68310;SDS011;55157;51.036;17.058;2022-08-04T03:09:50;14.68;;;8.10;;
68310;SDS011;55157;51.036;17.058;2022-08-04T03:12:46;15.68;;;8.43;;
68310;SDS011;55157;51.036;17.058;2022-08-04T03:18:14;17.88;;;8.50;;
68310;SDS011;55157;51.036;17.058;2022-08-04T03:21:01;15.85;;;8.15;;
68310;SDS011;55157;51.036;17.058;2022-08-04T03:23:42;17.40;;;8.13;;
68310;SDS011;55157;51.036;17.058;2022-08-04T03:26:26;18.92;;;8.80;;
68310;SDS011;55157;51.036;17.058;2022-08-04T03:29:05;28.80;;;9.05;;
68310;SDS011;55157;51.036;17.058;2022-08-04T03:31:42;14.45;;;8.68;;
68310;SDS011;55157;51.036;17.058;2022-08-04T03:34:16;17.35;;;9.00;;
68310;SDS011;55157;51.036;17.058;2022-08-04T03:37:06;17.70;;;9.07;;
68310;SDS011;55157;51.036;17.058;2022-08-04T03:45:03;21.10;;;8.95;;
68310;SDS011;55157;51.036;17.058;2022-08-04T03:47:36;20.52;;;9.68;;
68310;SDS011;55157;51.036;17.058;2022-08-04T03:52:55;18.25;;;8.30;;
68310;SDS011;55157;51.036;17.058;2022-08-04T03:55:35;15.70;;;8.23;;
68310;SDS011;55157;51.036;17.058;2022-08-04T03:58:16;14.30;;;8.70;;
68310;SDS011;55157;51.036;17.058;2022-08-04T04:00:54;13.25;;;8.60;;
68310;SDS011;55157;51.036;17.058;2022-08-04T04:03:26;16.42;;;8.85;;
68310;SDS011;55157;51.036;17.058;2022-08-04T04:06:10;13.20;;;9.13;;
68310;SDS011;55157;51.036;17.058;2022-08-04T04:08:46;10.98;;;8.32;;
68310;SDS011;55157;51.036;17.058;2022-08-04T04:11:19;13.65;;;9.00;;
68310;SDS011;55157;51.036;17.058;2022-08-04T04:13:49;15.57;;;7.90;;
68310;SDS011;55157;51.036;17.058;2022-08-04T04:16:22;13.20;;;8.93;;
68310;SDS011;55157;51.036;17.058;2022-08-04T04:19:00;12.00;;;8.75;;
68310;SDS011;55157;51.036;17.058;2022-08-04T04:21:29;19.23;;;8.85;;
68310;SDS011;55157;51.036;17.058;2022-08-04T04:24:01;14.73;;;8.88;;
68310;SDS011;55157;51.036;17.058;2022-08-04T04:26:37;12.75;;;8.65;;
68310;SDS011;55157;51.036;17.058;2022-08-04T04:29:16;36.45;;;9.40;;
68310;SDS011;55157;51.036;17.058;2022-08-04T04:31:55;16.05;;;8.80;;
68310;SDS011;55157;51.036;17.058;2022-08-04T04:34:25;18.23;;;9.45;;
68310;SDS011;55157;51.036;17.058;2022-08-04T04:37:00;15.52;;;9.90;;
68310;SDS011;55157;51.036;17.058;2022-08-04T04:39:31;12.80;;;9.30;;
68310;SDS011;55157;51.036;17.058;2022-08-04T04:42:07;16.77;;;8.45;;
68310;SDS011;55157;51.036;17.058;2022-08-04T04:47:26;16.38;;;8.40;;
68310;SDS011;55157;51.036;17.058;2022-08-04T04:49:54;17.27;;;9.95;;
68310;SDS011;55157;51.036;17.058;2022-08-04T04:52:23;17.33;;;8.93;;
68310;SDS011;55157;51.036;17.058;2022-08-04T04:54:52;21.73;;;9.65;;
68310;SDS011;55157;51.036;17.058;2022-08-04T04:57:19;21.45;;;8.07;;
68310;SDS011;55157;51.036;17.058;2022-08-04T04:59:45;13.63;;;8.88;;
68310;SDS011;55157;51.036;17.058;2022-08-04T05:02:17;15.68;;;8.82;;
68310;SDS011;55157;51.036;17.058;2022-08-04T05:04:51;16.30;;;8.85;;
68310;SDS011;55157;51.036;17.058;2022-08-04T05:07:27;13.55;;;8.18;;
68310;SDS011;55157;51.036;17.058;2022-08-04T05:10:02;22.75;;;10.95;;
68310;SDS011;55157;51.036;17.058;2022-08-04T05:12:34;11.52;;;9.15;;
68310;SDS011;55157;51.036;17.058;2022-08-04T05:15:02;11.75;;;9.25;;
68310;SDS011;55157;51.036;17.058;2022-08-04T05:17:29;16.75;;;9.25;;
68310;SDS011;55157;51.036;17.058;2022-08-04T05:19:59;24.20;;;9.95;;
68310;SDS011;55157;51.036;17.058;2022-08-04T05:22:27;14.63;;;9.93;;
68310;SDS011;55157;51.036;17.058;2022-08-04T05:24:54;15.45;;;8.77;;
68310;SDS011;55157;51.036;17.058;2022-08-04T05:27:25;17.52;;;9.27;;
68310;SDS011;55157;51.036;17.058;2022-08-04T05:29:53;10.98;;;8.68;;
68310;SDS011;55157;51.036;17.058;2022-08-04T05:32:20;16.42;;;9.02;;
68310;SDS011;55157;51.036;17.058;2022-08-04T05:34:48;15.50;;;8.27;;
68310;SDS011;55157;51.036;17.058;2022-08-04T05:37:18;16.25;;;9.48;;
68310;SDS011;55157;51.036;17.058;2022-08-04T05:39:45;14.23;;;9.60;;
68310;SDS011;55157;51.036;17.058;2022-08-04T05:42:11;12.82;;;8.48;;
68310;SDS011;55157;51.036;17.058;2022-08-04T05:44:38;9.48;;;7.30;;
68310;SDS011;55157;51.036;17.058;2022-08-04T05:47:04;24.77;;;8.68;;
68310;SDS011;55157;51.036;17.058;2022-08-04T05:49:31;14.63;;;7.90;;
68310;SDS011;55157;51.036;17.058;2022-08-04T05:51:57;10.93;;;7.50;;
68310;SDS011;55157;51.036;17.058;2022-08-04T05:54:24;16.23;;;7.78;;
68310;SDS011;55157;51.036;17.058;2022-08-04T05:56:50;27.67;;;8.65;;
68310;SDS011;55157;51.036;17.058;2022-08-04T05:59:17;23.30;;;8.68;;
68310;SDS011;55157;51.036;17.058;2022-08-04T06:01:43;12.80;;;7.95;;
68310;SDS011;55157;51.036;17.058;2022-08-04T06:04:10;16.77;;;7.90;;
68310;SDS011;55157;51.036;17.058;2022-08-04T06:06:36;14.65;;;7.40;;
68310;SDS011;55157;51.036;17.058;2022-08-04T06:09:02;21.67;;;7.45;;
68310;SDS011;55157;51.036;17.058;2022-08-04T06:11:29;15.48;;;7.65;;
68310;SDS011;55157;51.036;17.058;2022-08-04T06:13:55;10.63;;;6.40;;
68310;SDS011;55157;51.036;17.058;2022-08-04T06:16:22;28.67;;;7.22;;
68310;SDS011;55157;51.036;17.058;2022-08-04T06:18:48;24.42;;;8.05;;
68310;SDS011;55157;51.036;17.058;2022-08-04T06:21:14;22.83;;;7.03;;
68310;SDS011;55157;51.036;17.058;2022-08-04T06:23:41;20.73;;;6.30;;
68310;SDS011;55157;51.036;17.058;2022-08-04T06:26:07;15.75;;;7.07;;
68310;SDS011;55157;51.036;17.058;2022-08-04T06:28:35;31.70;;;6.63;;
68310;SDS011;55157;51.036;17.058;2022-08-04T06:31:01;18.17;;;6.95;;
68310;SDS011;55157;51.036;17.058;2022-08-04T06:33:28;11.07;;;6.28;;
68310;SDS011;55157;51.036;17.058;2022-08-04T06:35:54;25.00;;;7.30;;
68310;SDS011;55157;51.036;17.058;2022-08-04T06:38:19;26.38;;;7.15;;
68310;SDS011;55157;51.036;17.058;2022-08-04T06:40:45;20.48;;;6.28;;
68310;SDS011;55157;51.036;17.058;2022-08-04T06:43:11;15.70;;;7.30;;
68310;SDS011;55157;51.036;17.058;2022-08-04T06:45:38;15.45;;;6.88;;
68310;SDS011;55157;51.036;17.058;2022-08-04T06:48:04;11.82;;;5.22;;
68310;SDS011;55157;51.036;17.058;2022-08-04T06:50:30;13.23;;;5.53;;
68310;SDS011;55157;51.036;17.058;2022-08-04T06:52:55;12.43;;;5.25;;
68310;SDS011;55157;51.036;17.058;2022-08-04T06:55:20;14.35;;;6.05;;
68310;SDS011;55157;51.036;17.058;2022-08-04T06:57:46;8.65;;;5.43;;
68310;SDS011;55157;51.036;17.058;2022-08-04T07:00:12;17.80;;;5.32;;
68310;SDS011;55157;51.036;17.058;2022-08-04T07:02:40;10.63;;;5.97;;
68310;SDS011;55157;51.036;17.058;2022-08-04T07:05:06;13.05;;;4.85;;
68310;SDS011;55157;51.036;17.058;2022-08-04T07:07:32;13.35;;;5.28;;
68310;SDS011;55157;51.036;17.058;2022-08-04T07:09:58;10.52;;;4.85;;
68310;SDS011;55157;51.036;17.058;2022-08-04T07:12:24;20.27;;;5.68;;
68310;SDS011;55157;51.036;17.058;2022-08-04T07:14:50;65.32;;;8.15;;
68310;SDS011;55157;51.036;17.058;2022-08-04T07:17:15;17.20;;;5.22;;
68310;SDS011;55157;51.036;17.058;2022-08-04T07:19:42;15.80;;;5.15;;
68310;SDS011;55157;51.036;17.058;2022-08-04T07:22:07;25.10;;;4.93;;
68310;SDS011;55157;51.036;17.058;2022-08-04T07:24:35;12.70;;;4.50;;
68310;SDS011;55157;51.036;17.058;2022-08-04T07:27:01;18.85;;;6.32;;
68310;SDS011;55157;51.036;17.058;2022-08-04T07:29:26;9.38;;;3.97;;
68310;SDS011;55157;51.036;17.058;2022-08-04T07:31:51;11.63;;;5.25;;
68310;SDS011;55157;51.036;17.058;2022-08-04T07:34:17;10.38;;;4.25;;
68310;SDS011;55157;51.036;17.058;2022-08-04T07:36:44;13.65;;;4.97;;
68310;SDS011;55157;51.036;17.058;2022-08-04T07:39:09;9.20;;;4.40;;
68310;SDS011;55157;51.036;17.058;2022-08-04T07:41:35;10.23;;;4.13;;
68310;SDS011;55157;51.036;17.058;2022-08-04T07:44:00;14.63;;;4.30;;
68310;SDS011;55157;51.036;17.058;2022-08-04T07:46:26;16.35;;;4.53;;
68310;SDS011;55157;51.036;17.058;2022-08-04T07:48:51;8.47;;;3.93;;
68310;SDS011;55157;51.036;17.058;2022-08-04T07:51:16;5.70;;;4.05;;
68310;SDS011;55157;51.036;17.058;2022-08-04T07:53:43;10.43;;;4.40;;
68310;SDS011;55157;51.036;17.058;2022-08-04T07:56:09;9.30;;;3.97;;
68310;SDS011;55157;51.036;17.058;2022-08-04T07:58:35;7.70;;;4.60;;
68310;SDS011;55157;51.036;17.058;2022-08-04T08:01:00;6.00;;;4.53;;
68310;SDS011;55157;51.036;17.058;2022-08-04T08:03:26;6.97;;;3.50;;
68310;SDS011;55157;51.036;17.058;2022-08-04T08:05:51;16.13;;;4.70;;
68310;SDS011;55157;51.036;17.058;2022-08-04T08:08:17;4.40;;;3.97;;
68310;SDS011;55157;51.036;17.058;2022-08-04T08:10:46;12.55;;;3.38;;
68310;SDS011;55157;51.036;17.058;2022-08-04T08:13:11;6.20;;;4.10;;
68310;SDS011;55157;51.036;17.058;2022-08-04T08:15:37;15.65;;;4.78;;
68310;SDS011;55157;51.036;17.058;2022-08-04T08:18:02;7.30;;;4.63;;
68310;SDS011;55157;51.036;17.058;2022-08-04T08:20:28;8.77;;;3.83;;
68310;SDS011;55157;51.036;17.058;2022-08-04T08:22:54;6.10;;;4.13;;
68310;SDS011;55157;51.036;17.058;2022-08-04T08:25:19;10.65;;;4.25;;
68310;SDS011;55157;51.036;17.058;2022-08-04T08:27:46;15.40;;;5.15;;
68310;SDS011;55157;51.036;17.058;2022-08-04T08:30:11;9.00;;;4.28;;
68310;SDS011;55157;51.036;17.058;2022-08-04T08:32:37;12.07;;;4.10;;
68310;SDS011;55157;51.036;17.058;2022-08-04T08:35:02;8.50;;;4.32;;
68310;SDS011;55157;51.036;17.058;2022-08-04T08:37:29;9.00;;;4.55;;
68310;SDS011;55157;51.036;17.058;2022-08-04T08:39:58;7.03;;;3.67;;
68310;SDS011;55157;51.036;17.058;2022-08-04T08:42:40;6.43;;;4.05;;
68310;SDS011;55157;51.036;17.058;2022-08-04T08:45:21;5.75;;;4.05;;
68310;SDS011;55157;51.036;17.058;2022-08-04T08:48:05;9.93;;;3.85;;
68310;SDS011;55157;51.036;17.058;2022-08-04T08:53:23;13.90;;;4.22;;
68310;SDS011;55157;51.036;17.058;2022-08-04T08:55:57;7.25;;;3.95;;
68310;SDS011;55157;51.036;17.058;2022-08-04T08:58:38;7.05;;;4.65;;
68310;SDS011;55157;51.036;17.058;2022-08-04T09:01:08;7.45;;;3.95;;
68310;SDS011;55157;51.036;17.058;2022-08-04T09:03:50;7.35;;;4.38;;
68310;SDS011;55157;51.036;17.058;2022-08-04T09:06:27;7.57;;;4.43;;
68310;SDS011;55157;51.036;17.058;2022-08-04T09:09:05;16.58;;;4.10;;
68310;SDS011;55157;51.036;17.058;2022-08-04T09:11:37;9.93;;;4.03;;
68310;SDS011;55157;51.036;17.058;2022-08-04T09:14:04;9.68;;;3.83;;
68310;SDS011;55157;51.036;17.058;2022-08-04T09:16:34;12.40;;;3.97;;
68310;SDS011;55157;51.036;17.058;2022-08-04T09:19:01;8.82;;;3.70;;
68310;SDS011;55157;51.036;17.058;2022-08-04T09:21:29;6.70;;;3.60;;
68310;SDS011;55157;51.036;17.058;2022-08-04T09:23:59;10.88;;;4.43;;
68310;SDS011;55157;51.036;17.058;2022-08-04T09:26:25;7.82;;;3.10;;
68310;SDS011;55157;51.036;17.058;2022-08-04T09:28:53;10.85;;;3.85;;
68310;SDS011;55157;51.036;17.058;2022-08-04T09:31:20;4.20;;;3.42;;
68310;SDS011;55157;51.036;17.058;2022-08-04T09:33:49;13.68;;;3.70;;
68310;SDS011;55157;51.036;17.058;2022-08-04T09:36:25;6.65;;;3.47;;
68310;SDS011;55157;51.036;17.058;2022-08-04T09:38:56;11.05;;;3.80;;
68310;SDS011;55157;51.036;17.058;2022-08-04T09:41:27;10.50;;;3.97;;
68310;SDS011;55157;51.036;17.058;2022-08-04T09:43:59;10.65;;;3.90;;
68310;SDS011;55157;51.036;17.058;2022-08-04T09:46:26;8.50;;;3.40;;
68310;SDS011;55157;51.036;17.058;2022-08-04T09:48:55;7.65;;;3.58;;
68310;SDS011;55157;51.036;17.058;2022-08-04T09:51:23;6.20;;;3.63;;
68310;SDS011;55157;51.036;17.058;2022-08-04T09:53:52;17.30;;;4.25;;
68310;SDS011;55157;51.036;17.058;2022-08-04T09:56:22;8.20;;;3.58;;
68310;SDS011;55157;51.036;17.058;2022-08-04T09:58:50;4.18;;;3.70;;
68310;SDS011;55157;51.036;17.058;2022-08-04T10:01:18;4.93;;;3.67;;
68310;SDS011;55157;51.036;17.058;2022-08-04T10:03:44;7.82;;;3.45;;
68310;SDS011;55157;51.036;17.058;2022-08-04T10:06:22;10.35;;;3.42;;
68310;SDS011;55157;51.036;17.058;2022-08-04T10:08:55;9.90;;;3.78;;
68310;SDS011;55157;51.036;17.058;2022-08-04T10:11:29;4.97;;;3.30;;
68310;SDS011;55157;51.036;17.058;2022-08-04T10:13:58;10.23;;;3.75;;
68310;SDS011;55157;51.036;17.058;2022-08-04T10:16:31;6.32;;;2.95;;
68310;SDS011;55157;51.036;17.058;2022-08-04T10:19:00;8.32;;;3.03;;
68310;SDS011;55157;51.036;17.058;2022-08-04T10:21:34;13.30;;;3.53;;
68310;SDS011;55157;51.036;17.058;2022-08-04T10:24:04;7.60;;;2.70;;
68310;SDS011;55157;51.036;17.058;2022-08-04T10:26:33;8.45;;;3.80;;
68310;SDS011;55157;51.036;17.058;2022-08-04T10:29:01;7.03;;;3.38;;
68310;SDS011;55157;51.036;17.058;2022-08-04T10:31:27;3.60;;;2.60;;
68310;SDS011;55157;51.036;17.058;2022-08-04T10:33:56;9.18;;;2.78;;
68310;SDS011;55157;51.036;17.058;2022-08-04T10:36:22;8.52;;;2.70;;
68310;SDS011;55157;51.036;17.058;2022-08-04T10:38:55;6.68;;;2.60;;
68310;SDS011;55157;51.036;17.058;2022-08-04T10:41:24;10.90;;;2.58;;
68310;SDS011;55157;51.036;17.058;2022-08-04T10:43:55;7.20;;;2.47;;
68310;SDS011;55157;51.036;17.058;2022-08-04T10:46:23;6.95;;;2.60;;
68310;SDS011;55157;51.036;17.058;2022-08-04T10:48:52;7.60;;;2.80;;
68310;SDS011;55157;51.036;17.058;2022-08-04T10:51:20;5.15;;;2.60;;
68310;SDS011;55157;51.036;17.058;2022-08-04T10:53:49;12.23;;;3.03;;
68310;SDS011;55157;51.036;17.058;2022-08-04T10:56:18;6.85;;;3.05;;
68310;SDS011;55157;51.036;17.058;2022-08-04T10:58:48;12.32;;;2.88;;
68310;SDS011;55157;51.036;17.058;2022-08-04T11:01:16;15.85;;;2.92;;
68310;SDS011;55157;51.036;17.058;2022-08-04T11:03:43;4.65;;;2.30;;
68310;SDS011;55157;51.036;17.058;2022-08-04T11:06:11;6.38;;;2.28;;
68310;SDS011;55157;51.036;17.058;2022-08-04T11:08:38;9.52;;;2.30;;
68310;SDS011;55157;51.036;17.058;2022-08-04T11:11:06;6.22;;;2.45;;
68310;SDS011;55157;51.036;17.058;2022-08-04T11:13:37;7.57;;;2.30;;
68310;SDS011;55157;51.036;17.058;2022-08-04T11:16:05;7.60;;;2.88;;
68310;SDS011;55157;51.036;17.058;2022-08-04T11:18:34;5.53;;;2.85;;
68310;SDS011;55157;51.036;17.058;2022-08-04T11:21:09;9.50;;;3.78;;
68310;SDS011;55157;51.036;17.058;2022-08-04T11:23:35;8.30;;;2.80;;
68310;SDS011;55157;51.036;17.058;2022-08-04T11:26:03;6.40;;;2.47;;
68310;SDS011;55157;51.036;17.058;2022-08-04T11:28:33;7.18;;;3.08;;
68310;SDS011;55157;51.036;17.058;2022-08-04T11:31:03;14.43;;;2.28;;
68310;SDS011;55157;51.036;17.058;2022-08-04T11:33:30;5.68;;;2.80;;
68310;SDS011;55157;51.036;17.058;2022-08-04T11:36:01;5.78;;;2.20;;
68310;SDS011;55157;51.036;17.058;2022-08-04T11:38:28;5.70;;;2.50;;
68310;SDS011;55157;51.036;17.058;2022-08-04T11:40:56;5.10;;;2.70;;
68310;SDS011;55157;51.036;17.058;2022-08-04T11:43:23;5.40;;;2.88;;
68310;SDS011;55157;51.036;17.058;2022-08-04T11:45:52;5.88;;;3.03;;
68310;SDS011;55157;51.036;17.058;2022-08-04T11:48:22;6.60;;;3.13;;
68310;SDS011;55157;51.036;17.058;2022-08-04T11:50:51;11.15;;;3.38;;
68310;SDS011;55157;51.036;17.058;2022-08-04T11:53:17;4.80;;;2.72;;
68310;SDS011;55157;51.036;17.058;2022-08-04T11:55:43;5.78;;;2.55;;
68310;SDS011;55157;51.036;17.058;2022-08-04T11:58:09;4.63;;;2.67;;
68310;SDS011;55157;51.036;17.058;2022-08-04T12:00:36;5.37;;;2.60;;
68310;SDS011;55157;51.036;17.058;2022-08-04T12:03:14;4.00;;;2.58;;
68310;SDS011;55157;51.036;17.058;2022-08-04T12:05:46;8.27;;;2.55;;
68310;SDS011;55157;51.036;17.058;2022-08-04T12:08:21;3.65;;;2.47;;
68310;SDS011;55157;51.036;17.058;2022-08-04T12:10:50;8.23;;;2.80;;
68310;SDS011;55157;51.036;17.058;2022-08-04T12:13:19;29.38;;;3.72;;
68310;SDS011;55157;51.036;17.058;2022-08-04T12:15:51;6.63;;;2.70;;
68310;SDS011;55157;51.036;17.058;2022-08-04T12:18:18;3.72;;;2.65;;
68310;SDS011;55157;51.036;17.058;2022-08-04T12:20:48;6.45;;;2.67;;
68310;SDS011;55157;51.036;17.058;2022-08-04T12:23:14;4.43;;;3.13;;
68310;SDS011;55157;51.036;17.058;2022-08-04T12:25:43;5.70;;;2.58;;
68310;SDS011;55157;51.036;17.058;2022-08-04T12:28:11;2.80;;;2.55;;
68310;SDS011;55157;51.036;17.058;2022-08-04T12:30:36;12.02;;;3.50;;
68310;SDS011;55157;51.036;17.058;2022-08-04T12:33:04;7.25;;;2.58;;
68310;SDS011;55157;51.036;17.058;2022-08-04T12:35:32;3.35;;;2.50;;
68310;SDS011;55157;51.036;17.058;2022-08-04T12:38:02;11.07;;;3.25;;
68310;SDS011;55157;51.036;17.058;2022-08-04T12:40:30;8.23;;;2.60;;
68310;SDS011;55157;51.036;17.058;2022-08-04T12:42:56;6.45;;;2.13;;
68310;SDS011;55157;51.036;17.058;2022-08-04T12:45:24;9.50;;;2.50;;
68310;SDS011;55157;51.036;17.058;2022-08-04T12:47:51;10.55;;;2.58;;
68310;SDS011;55157;51.036;17.058;2022-08-04T12:50:17;8.10;;;2.00;;
68310;SDS011;55157;51.036;17.058;2022-08-04T12:52:43;3.55;;;2.45;;
68310;SDS011;55157;51.036;17.058;2022-08-04T12:55:12;3.97;;;2.08;;
68310;SDS011;55157;51.036;17.058;2022-08-04T12:57:39;5.07;;;2.30;;
68310;SDS011;55157;51.036;17.058;2022-08-04T13:00:05;7.55;;;2.38;;
68310;SDS011;55157;51.036;17.058;2022-08-04T13:02:34;6.38;;;2.45;;
68310;SDS011;55157;51.036;17.058;2022-08-04T13:05:03;4.68;;;2.75;;
68310;SDS011;55157;51.036;17.058;2022-08-04T13:07:34;16.35;;;2.72;;
68310;SDS011;55157;51.036;17.058;2022-08-04T13:10:01;4.90;;;2.93;;
68310;SDS011;55157;51.036;17.058;2022-08-04T13:12:31;11.93;;;2.83;;
68310;SDS011;55157;51.036;17.058;2022-08-04T13:14:58;9.80;;;2.95;;
68310;SDS011;55157;51.036;17.058;2022-08-04T13:17:24;5.18;;;2.70;;
68310;SDS011;55157;51.036;17.058;2022-08-04T13:19:50;6.80;;;3.23;;
68310;SDS011;55157;51.036;17.058;2022-08-04T13:22:22;6.13;;;2.70;;
68310;SDS011;55157;51.036;17.058;2022-08-04T13:24:48;6.18;;;2.65;;
68310;SDS011;55157;51.036;17.058;2022-08-04T13:27:14;14.55;;;2.95;;
68310;SDS011;55157;51.036;17.058;2022-08-04T13:29:42;11.10;;;2.67;;
68310;SDS011;55157;51.036;17.058;2022-08-04T13:32:07;14.07;;;2.50;;
68310;SDS011;55157;51.036;17.058;2022-08-04T13:34:33;3.30;;;2.45;;
68310;SDS011;55157;51.036;17.058;2022-08-04T13:36:59;4.68;;;2.28;;
68310;SDS011;55157;51.036;17.058;2022-08-04T13:39:25;4.93;;;2.47;;
68310;SDS011;55157;51.036;17.058;2022-08-04T13:41:51;10.82;;;2.38;;
68310;SDS011;55157;51.036;17.058;2022-08-04T13:44:17;12.43;;;2.67;;
68310;SDS011;55157;51.036;17.058;2022-08-04T13:46:46;5.57;;;2.80;;
68310;SDS011;55157;51.036;17.058;2022-08-04T13:49:14;5.75;;;2.88;;
68310;SDS011;55157;51.036;17.058;2022-08-04T13:51:39;7.20;;;2.45;;
68310;SDS011;55157;51.036;17.058;2022-08-04T13:54:05;3.80;;;2.80;;
68310;SDS011;55157;51.036;17.058;2022-08-04T13:56:32;6.45;;;3.08;;
68310;SDS011;55157;51.036;17.058;2022-08-04T13:58:59;6.60;;;3.05;;
68310;SDS011;55157;51.036;17.058;2022-08-04T14:01:26;13.45;;;3.28;;
68310;SDS011;55157;51.036;17.058;2022-08-04T14:03:56;3.63;;;2.67;;
68310;SDS011;55157;51.036;17.058;2022-08-04T14:06:24;2.85;;;2.58;;
68310;SDS011;55157;51.036;17.058;2022-08-04T14:08:51;11.27;;;2.58;;
68310;SDS011;55157;51.036;17.058;2022-08-04T14:11:16;4.65;;;2.47;;
68310;SDS011;55157;51.036;17.058;2022-08-04T14:13:42;7.30;;;2.58;;
68310;SDS011;55157;51.036;17.058;2022-08-04T14:16:14;10.77;;;2.85;;
68310;SDS011;55157;51.036;17.058;2022-08-04T14:18:40;10.73;;;3.10;;
68310;SDS011;55157;51.036;17.058;2022-08-04T14:21:07;7.88;;;3.17;;
68310;SDS011;55157;51.036;17.058;2022-08-04T14:23:44;11.63;;;2.90;;
68310;SDS011;55157;51.036;17.058;2022-08-04T14:26:13;6.43;;;3.20;;
68310;SDS011;55157;51.036;17.058;2022-08-04T14:28:38;5.18;;;3.25;;
68310;SDS011;55157;51.036;17.058;2022-08-04T14:31:07;5.93;;;3.20;;
68310;SDS011;55157;51.036;17.058;2022-08-04T14:33:35;3.85;;;2.85;;
68310;SDS011;55157;51.036;17.058;2022-08-04T14:36:01;6.68;;;2.78;;
68310;SDS011;55157;51.036;17.058;2022-08-04T14:38:39;10.65;;;3.30;;
68310;SDS011;55157;51.036;17.058;2022-08-04T14:41:05;12.77;;;3.53;;
68310;SDS011;55157;51.036;17.058;2022-08-04T14:43:30;4.85;;;2.80;;
68310;SDS011;55157;51.036;17.058;2022-08-04T14:46:02;11.73;;;3.10;;
68310;SDS011;55157;51.036;17.058;2022-08-04T14:48:28;17.38;;;3.60;;
68310;SDS011;55157;51.036;17.058;2022-08-04T14:50:53;4.03;;;3.00;;
68310;SDS011;55157;51.036;17.058;2022-08-04T14:53:19;4.78;;;2.90;;
68310;SDS011;55157;51.036;17.058;2022-08-04T14:55:46;3.83;;;3.35;;
68310;SDS011;55157;51.036;17.058;2022-08-04T14:58:16;5.15;;;2.95;;
68310;SDS011;55157;51.036;17.058;2022-08-04T15:00:41;8.20;;;3.35;;
68310;SDS011;55157;51.036;17.058;2022-08-04T15:03:07;7.30;;;2.80;;
68310;SDS011;55157;51.036;17.058;2022-08-04T15:05:33;4.30;;;3.38;;